createdAt,value
2018-01-22T00:01:04.620Z,92.93
2018-01-22T00:03:37.936Z,92.90
2018-01-22T00:06:06.294Z,92.94
2018-01-22T00:08:38.361Z,92.90
2018-01-22T00:11:06.710Z,93.13
2018-01-22T00:13:35.092Z,93.11
2018-01-22T00:16:04.440Z,92.84
2018-01-22T00:18:32.843Z,92.87
2018-01-22T00:21:03.296Z,92.90
2018-01-22T00:23:31.720Z,92.84
2018-01-22T00:26:01.978Z,93.30
2018-01-22T00:28:30.329Z,93.58
2018-01-22T00:30:58.691Z,93.55
2018-01-22T00:33:27.070Z,92.97
2018-01-22T00:36:03.744Z,92.35
2018-01-22T00:38:32.152Z,92.74
2018-01-22T00:41:03.600Z,93.14
2018-01-22T00:43:35.598Z,92.94
2018-01-22T00:46:04.617Z,92.55
2018-01-22T00:48:32.996Z,93.12
2018-01-22T00:51:01.436Z,93.42
2018-01-22T00:53:29.786Z,93.23
2018-01-22T00:55:58.165Z,92.68
2018-01-22T00:58:32.107Z,92.80
2018-01-22T01:01:03.495Z,93.25
2018-01-22T01:03:35.941Z,93.60
2018-01-22T01:06:04.291Z,93.67
2018-01-22T01:08:32.657Z,93.48
2018-01-22T01:11:04.741Z,93.23
2018-01-22T01:13:33.105Z,93.11
2018-01-22T01:16:01.483Z,93.16
2018-01-22T01:18:33.601Z,93.51
2018-01-22T01:21:02.853Z,93.47
2018-01-22T01:23:31.231Z,93.29
2018-01-22T01:26:12.452Z,93.06
2018-01-22T01:28:41.802Z,93.35
2018-01-22T01:31:10.239Z,93.37
2018-01-22T01:33:43.193Z,93.34
2018-01-22T01:36:11.819Z,93.66
2018-01-22T01:38:41.789Z,93.72
2018-01-22T01:41:10.156Z,93.69
2018-01-22T01:43:38.538Z,93.76
2018-01-22T01:46:06.928Z,93.79
2018-01-22T01:48:35.343Z,93.74
2018-01-22T01:51:03.685Z,93.28
2018-01-22T01:53:32.060Z,93.54
2018-01-22T01:56:00.452Z,93.81
2018-01-22T01:58:30.693Z,93.85
2018-01-22T02:00:59.066Z,93.84
2018-01-22T02:03:27.452Z,93.73
2018-01-22T02:05:55.809Z,93.46
2018-01-22T02:08:24.177Z,93.26
2018-01-22T02:10:52.571Z,93.41
2018-01-22T02:13:20.970Z,93.43
2018-01-22T02:15:49.343Z,93.30
2018-01-22T02:18:19.571Z,92.87
2018-01-22T02:20:47.964Z,92.42
2018-01-22T02:23:16.316Z,92.46
2018-01-22T02:25:44.694Z,92.70
2018-01-22T02:28:13.093Z,93.04
2018-01-22T02:30:41.460Z,93.05
2018-01-22T02:33:09.855Z,93.14
2018-01-22T02:35:40.095Z,93.23
2018-01-22T02:38:08.452Z,93.04
2018-01-22T02:40:36.817Z,93.09
2018-01-22T02:43:05.207Z,92.90
2018-01-22T02:45:33.575Z,93.23
2018-01-22T02:48:01.963Z,93.31
2018-01-22T02:50:30.322Z,93.16
2018-01-22T02:52:58.759Z,93.07
2018-01-22T02:55:28.080Z,92.72
2018-01-22T02:57:57.300Z,93.01
2018-01-22T03:00:25.721Z,93.13
2018-01-22T03:02:54.077Z,93.33
2018-01-22T03:05:22.484Z,93.59
2018-01-22T03:07:50.859Z,93.76
2018-01-22T03:10:19.508Z,93.79
2018-01-22T03:12:47.927Z,93.78
2018-01-22T03:15:16.315Z,93.49
2018-01-22T03:17:44.964Z,93.50
2018-01-22T03:20:13.366Z,93.65
2018-01-22T03:22:41.732Z,93.55
2018-01-22T03:25:10.134Z,93.52
2018-01-22T03:27:39.413Z,93.16
2018-01-22T03:30:07.800Z,92.88
2018-01-22T03:32:36.182Z,92.99
2018-01-22T03:35:04.571Z,92.92
2018-01-22T03:37:32.936Z,92.71
2018-01-22T03:40:01.316Z,92.52
2018-01-22T03:42:29.753Z,92.70
2018-01-22T03:44:58.065Z,92.48
2018-01-22T03:47:27.384Z,92.62
2018-01-22T03:49:55.785Z,92.36
2018-01-22T03:52:24.149Z,92.85
2018-01-22T03:54:52.537Z,92.66
2018-01-22T03:57:20.930Z,93.18
2018-01-22T03:59:49.269Z,93.39
2018-01-22T04:02:17.691Z,93.37
2018-01-22T04:04:46.037Z,93.16
2018-01-22T04:07:18.248Z,93.26
2018-01-22T04:09:46.536Z,93.56
2018-01-22T04:12:14.869Z,93.35
2018-01-22T04:14:43.265Z,92.88
2018-01-22T04:17:11.632Z,92.77
2018-01-22T04:19:40.021Z,92.46
2018-01-22T04:22:08.410Z,92.46
2018-01-22T04:24:36.776Z,92.37
2018-01-22T04:27:08.546Z,92.45
2018-01-22T04:29:36.940Z,92.78
2018-01-22T04:32:06.602Z,92.40
2018-01-22T04:34:34.899Z,92.20
2018-01-22T04:37:04.189Z,91.89
2018-01-22T04:39:32.614Z,92.19
2018-01-22T04:42:00.974Z,92.57
2018-01-22T04:44:29.344Z,92.41
2018-01-22T04:46:57.721Z,92.66
2018-01-22T04:49:26.092Z,92.12
2018-01-22T04:51:54.512Z,92.67
2018-01-22T04:54:22.863Z,92.49
2018-01-22T04:56:53.094Z,92.30
2018-01-22T04:59:21.495Z,92.61
2018-01-22T05:01:49.832Z,92.42
2018-01-22T05:04:18.247Z,92.73
2018-01-22T05:06:46.599Z,93.02
2018-01-22T05:09:15.026Z,92.67
2018-01-22T05:11:43.672Z,92.19
2018-01-22T05:14:12.063Z,92.56
2018-01-22T05:16:40.441Z,92.51
2018-01-22T05:19:08.835Z,92.14
2018-01-22T05:21:37.163Z,92.03
2018-01-22T05:24:06.524Z,92.01
2018-01-22T05:26:34.882Z,92.58
2018-01-22T05:29:03.234Z,92.23
2018-01-22T05:31:31.614Z,92.02
2018-01-22T05:34:00.138Z,92.21
2018-01-22T05:36:28.426Z,91.98
2018-01-22T05:38:56.762Z,91.99
2018-01-22T05:41:25.205Z,92.13
2018-01-22T05:43:54.458Z,92.05
2018-01-22T05:46:22.819Z,91.83
2018-01-22T05:48:51.227Z,91.67
2018-01-22T05:51:19.609Z,91.42
2018-01-22T05:53:47.992Z,92.12
2018-01-22T05:56:16.344Z,92.13
2018-01-22T05:58:44.768Z,92.39
2018-01-22T06:01:13.138Z,92.38
2018-01-22T06:03:43.633Z,92.52
2018-01-22T06:06:12.007Z,92.12
2018-01-22T06:08:44.707Z,91.97
2018-01-22T06:11:13.078Z,91.63
2018-01-22T06:13:41.491Z,91.47
2018-01-22T06:16:10.800Z,91.21
2018-01-22T06:18:39.173Z,91.06
2018-01-22T06:21:07.520Z,91.08
2018-01-22T06:23:35.908Z,91.95
2018-01-22T06:26:04.295Z,92.18
2018-01-22T06:28:32.679Z,92.46
2018-01-22T06:31:01.051Z,91.96
2018-01-22T06:33:29.414Z,91.98
2018-01-22T06:36:01.213Z,91.76
2018-01-22T06:38:29.622Z,91.61
2018-01-22T06:40:57.945Z,91.77
2018-01-22T06:43:27.673Z,91.51
2018-01-22T06:45:55.951Z,92.23
2018-01-22T06:48:25.207Z,91.99
2018-01-22T06:50:53.625Z,91.89
2018-01-22T06:53:21.969Z,91.69
2018-01-22T06:55:50.374Z,91.60
2018-01-22T06:58:18.776Z,91.78
2018-01-22T07:00:47.126Z,92.21
2018-01-22T07:03:15.515Z,92.44
2018-01-22T07:05:43.921Z,92.61
2018-01-22T07:08:13.201Z,92.11
2018-01-22T07:10:41.567Z,91.93
2018-01-22T07:13:09.971Z,91.74
2018-01-22T07:15:38.387Z,92.14
2018-01-22T07:18:06.733Z,92.42
2018-01-22T07:20:35.116Z,92.53
2018-01-22T07:23:03.501Z,92.41
2018-01-22T07:25:31.864Z,92.19
2018-01-22T07:28:00.243Z,91.74
2018-01-22T07:30:30.454Z,91.55
2018-01-22T07:32:58.868Z,91.44
2018-01-22T07:35:27.891Z,91.30
2018-01-22T07:37:57.288Z,91.57
2018-01-22T07:40:26.532Z,91.67
2018-01-22T07:42:54.940Z,91.77
2018-01-22T07:45:24.109Z,91.46
2018-01-22T07:47:52.508Z,91.83
2018-01-22T07:50:22.742Z,92.29
2018-01-22T07:52:51.114Z,92.27
2018-01-22T07:55:22.882Z,92.18
2018-01-22T07:57:51.245Z,92.44
2018-01-22T08:00:21.456Z,92.75
2018-01-22T08:02:49.867Z,92.60
2018-01-22T08:05:18.212Z,92.85
2018-01-22T08:07:47.009Z,92.41
2018-01-22T08:10:15.323Z,92.36
2018-01-22T08:12:43.664Z,91.99
2018-01-22T08:15:12.047Z,91.92
2018-01-22T08:17:40.446Z,92.03
2018-01-22T08:20:08.826Z,91.99
2018-01-22T08:22:37.113Z,92.09
2018-01-22T08:25:05.572Z,92.74
2018-01-22T08:27:34.888Z,92.61
2018-01-22T08:30:03.331Z,92.24
2018-01-22T08:32:31.656Z,92.12
2018-01-22T08:35:00.002Z,92.22
2018-01-22T08:37:28.413Z,92.09
2018-01-22T08:39:57.731Z,91.76
2018-01-22T08:42:26.164Z,92.02
2018-01-22T08:44:56.346Z,91.89
2018-01-22T08:47:24.710Z,91.98
2018-01-22T08:49:53.079Z,91.83
2018-01-22T08:52:21.457Z,91.75
2018-01-22T08:54:50.737Z,92.04
2018-01-22T08:57:19.147Z,92.02
2018-01-22T08:59:47.515Z,92.19
2018-01-22T09:02:15.869Z,92.38
2018-01-22T09:04:44.297Z,92.20
2018-01-22T09:07:12.636Z,92.00
2018-01-22T09:09:40.887Z,91.83
2018-01-22T09:12:09.189Z,92.04
2018-01-22T09:14:37.475Z,92.33
2018-01-22T09:17:05.880Z,92.46
2018-01-22T09:19:34.249Z,92.40
2018-01-22T09:22:02.647Z,92.53
2018-01-22T09:24:31.027Z,92.94
2018-01-22T09:26:59.485Z,92.41
2018-01-22T09:29:27.904Z,92.12
2018-01-22T09:31:56.188Z,92.09
2018-01-22T09:34:24.522Z,92.47
2018-01-22T09:36:52.918Z,92.72
2018-01-22T09:39:21.293Z,92.76
2018-01-22T09:41:49.673Z,92.57
2018-01-22T09:44:18.048Z,92.47
2018-01-22T09:46:46.453Z,92.63
2018-01-22T09:49:14.815Z,92.71
2018-01-22T09:51:43.210Z,92.44
2018-01-22T09:54:15.258Z,92.73
2018-01-22T09:56:43.661Z,92.58
2018-01-22T09:59:12.018Z,92.44
2018-01-22T10:01:40.420Z,92.67
2018-01-22T10:04:12.775Z,92.61
2018-01-22T10:06:42.092Z,92.73
2018-01-22T10:09:10.454Z,92.49
2018-01-22T10:11:38.830Z,92.93
2018-01-22T10:14:07.190Z,93.00
2018-01-22T10:16:35.586Z,92.59
2018-01-22T10:19:03.976Z,92.54
2018-01-22T10:21:32.369Z,92.27
2018-01-22T10:24:00.792Z,92.13
2018-01-22T10:26:29.108Z,92.25
2018-01-22T10:28:57.471Z,92.89
2018-01-22T10:31:25.882Z,93.15
2018-01-22T10:33:54.248Z,92.96
2018-01-22T10:36:22.639Z,92.71
2018-01-22T10:38:51.003Z,92.69
2018-01-22T10:41:19.392Z,92.77
2018-01-22T10:43:47.838Z,92.69
2018-01-22T10:46:17.058Z,93.04
2018-01-22T10:48:45.449Z,93.13
2018-01-22T10:51:13.834Z,92.97
2018-01-22T10:53:42.201Z,93.22
2018-01-22T10:56:10.619Z,93.06
2018-01-22T10:58:38.956Z,93.15
2018-01-22T11:34:49.984Z,91.87
2018-01-22T11:37:19.268Z,91.37
2018-01-22T11:39:47.646Z,91.37
2018-01-22T11:42:16.010Z,91.49
2018-01-22T11:44:44.414Z,91.52
2018-01-22T11:47:12.783Z,91.46
2018-01-22T11:49:41.161Z,91.69
2018-01-22T11:52:09.536Z,91.96
2018-01-22T11:54:37.911Z,91.92
2018-01-22T11:57:07.230Z,92.58
2018-01-22T11:59:35.567Z,92.69
2018-01-22T12:02:04.064Z,92.74
2018-01-22T12:04:32.367Z,92.66
2018-01-22T12:07:00.752Z,92.76
2018-01-22T12:09:30.429Z,92.40
2018-01-22T12:11:58.725Z,92.46
2018-01-22T12:14:27.508Z,92.76
2018-01-22T12:16:55.808Z,92.55
2018-01-22T12:19:24.329Z,92.66
2018-01-22T12:21:52.605Z,92.77
2018-01-22T12:24:21.835Z,92.69
2018-01-22T12:26:50.256Z,92.80
2018-01-22T12:29:19.519Z,92.72
2018-01-22T12:31:47.905Z,92.40
2018-01-22T12:34:16.326Z,92.91
2018-01-22T12:36:44.709Z,92.74
2018-01-22T12:39:13.063Z,92.83
2018-01-22T12:41:41.422Z,92.79
2018-01-22T12:44:09.813Z,92.76
2018-01-22T12:46:38.209Z,93.12
2018-01-22T12:49:06.631Z,93.46
2018-01-22T12:51:34.968Z,93.06
2018-01-22T12:54:03.346Z,93.14
2018-01-22T12:56:31.735Z,93.12
2018-01-22T12:59:00.112Z,92.82
2018-01-22T13:01:28.470Z,92.99
2018-01-22T13:03:56.869Z,92.80
2018-01-22T13:06:25.299Z,92.60
2018-01-22T13:08:54.570Z,92.44
2018-01-22T13:11:23.849Z,92.77
2018-01-22T13:13:52.220Z,92.90
2018-01-22T13:16:20.595Z,92.90
2018-01-22T13:18:48.992Z,92.80
2018-01-22T13:21:17.683Z,92.81
2018-01-22T13:23:46.066Z,92.83
2018-01-22T13:26:14.429Z,92.83
2018-01-22T13:28:42.820Z,92.94
2018-01-22T13:31:11.171Z,92.95
2018-01-22T13:33:39.559Z,92.90
2018-01-22T13:36:07.970Z,93.06
2018-01-22T13:38:36.316Z,93.07
2018-01-22T13:41:10.140Z,93.39
2018-01-22T13:43:38.610Z,93.36
2018-01-22T13:46:06.981Z,93.13
2018-01-22T13:48:35.382Z,93.11
2018-01-22T13:51:03.771Z,94.44
2018-01-22T13:53:32.150Z,94.03
2018-01-22T13:56:00.528Z,93.81
2018-01-22T13:58:28.900Z,93.88
2018-01-22T14:00:57.288Z,93.80
2018-01-22T14:03:26.584Z,93.89
2018-01-22T14:05:55.008Z,95.01
2018-01-22T14:08:23.342Z,95.53
2018-01-22T14:10:51.709Z,95.50
2018-01-22T14:13:20.105Z,95.20
2018-01-22T14:15:48.475Z,95.21
2018-01-22T14:18:17.945Z,94.75
2018-01-22T14:20:47.083Z,94.48
2018-01-22T14:23:15.492Z,94.17
2018-01-22T14:25:43.841Z,94.13
2018-01-22T14:28:12.223Z,94.10
2018-01-22T14:30:40.619Z,94.14
2018-01-22T14:33:08.986Z,94.11
2018-01-22T14:35:37.398Z,93.90
2018-01-22T14:38:05.753Z,93.76
2018-01-22T14:40:34.203Z,94.20
2018-01-22T14:43:02.506Z,94.14
2018-01-22T14:45:30.913Z,93.98
2018-01-22T14:47:59.258Z,93.93
2018-01-22T14:50:27.655Z,94.03
2018-01-22T14:52:56.030Z,93.73
2018-01-22T14:55:24.413Z,93.65
2018-01-22T14:57:52.787Z,93.72
2018-01-22T15:00:21.115Z,93.67
2018-01-22T15:02:49.566Z,93.54
2018-01-22T15:05:17.944Z,94.02
2018-01-22T15:07:46.321Z,94.28
2018-01-22T15:10:14.589Z,94.04
2018-01-22T15:12:43.090Z,93.65
2018-01-22T15:15:11.458Z,94.59
2018-01-22T15:17:39.857Z,94.16
2018-01-22T15:20:08.221Z,93.94
2018-01-22T15:22:36.593Z,94.20
2018-01-22T15:25:05.880Z,94.40
2018-01-22T15:27:34.301Z,94.26
2018-01-22T15:30:02.686Z,94.34
2018-01-22T15:32:31.041Z,94.44
2018-01-22T15:34:59.413Z,94.54
2018-01-22T15:37:27.781Z,94.57
2018-01-22T15:39:56.219Z,94.54
2018-01-22T15:42:24.580Z,94.57
2018-01-22T15:44:52.958Z,94.48
2018-01-22T15:47:21.319Z,94.51
2018-01-22T15:49:49.677Z,94.43
2018-01-22T15:52:18.082Z,94.17
2018-01-22T15:54:46.451Z,94.06
2018-01-22T15:57:14.879Z,93.95
2018-01-22T15:59:43.230Z,93.85
2018-01-22T16:02:11.478Z,94.48
2018-01-22T16:04:40.937Z,94.16
2018-01-22T16:07:09.275Z,94.06
2018-01-22T16:09:37.630Z,94.28
2018-01-22T16:12:06.060Z,94.51
2018-01-22T16:14:34.403Z,93.93
2018-01-22T16:17:02.798Z,94.12
2018-01-22T16:19:31.197Z,94.42
2018-01-22T16:21:59.558Z,94.36
2018-01-22T16:24:27.954Z,94.31
2018-01-22T16:26:56.312Z,94.19
2018-01-22T16:29:24.725Z,93.85
2018-01-22T16:31:53.095Z,93.98
2018-01-22T16:34:21.464Z,93.71
2018-01-22T16:36:53.821Z,93.50
2018-01-22T16:39:22.204Z,93.87
2018-01-22T16:41:50.594Z,93.65
2018-01-22T16:44:18.991Z,93.52
2018-01-22T16:46:52.800Z,93.43
2018-01-22T16:49:22.795Z,93.40
2018-01-22T16:51:51.174Z,93.65
2018-01-22T16:54:19.567Z,93.55
2018-01-22T16:56:47.926Z,93.53
2018-01-22T16:59:16.325Z,93.38
2018-01-22T17:01:45.617Z,93.44
2018-01-22T17:04:14.016Z,93.36
2018-01-22T17:06:42.367Z,93.67
2018-01-22T17:09:10.777Z,94.23
2018-01-22T17:11:39.173Z,93.79
2018-01-22T17:14:07.535Z,94.18
2018-01-22T17:16:35.905Z,93.93
2018-01-22T17:19:04.252Z,94.38
2018-01-22T17:21:32.663Z,94.14
2018-01-22T17:24:01.054Z,94.39
2018-01-22T17:26:29.472Z,94.48
2018-01-22T17:28:57.813Z,94.06
2018-01-22T17:31:26.192Z,93.84
2018-01-22T17:33:54.574Z,94.27
2018-01-22T17:36:22.984Z,94.04
2018-01-22T17:38:51.378Z,94.45
2018-01-22T17:41:20.629Z,94.11
2018-01-22T17:43:50.564Z,94.29
2018-01-22T17:46:18.910Z,94.58
2018-01-22T17:48:47.300Z,94.19
2018-01-22T17:51:15.689Z,94.63
2018-01-22T17:53:44.084Z,94.83
2018-01-22T17:56:12.424Z,94.47
2018-01-22T17:58:40.827Z,94.80
2018-01-22T18:01:09.230Z,94.92
2018-01-22T18:03:37.569Z,95.17
2018-01-22T18:06:06.210Z,94.89
2018-01-22T18:08:35.272Z,94.48
2018-01-22T18:11:03.645Z,94.35
2018-01-22T18:13:32.018Z,94.18
2018-01-22T18:16:00.399Z,94.32
2018-01-22T18:18:28.789Z,94.22
2018-01-22T18:20:57.211Z,94.38
2018-01-22T18:23:25.570Z,94.21
2018-01-22T18:25:53.922Z,94.27
2018-01-22T18:28:23.232Z,94.48
2018-01-22T18:30:57.420Z,94.27
2018-01-22T18:33:25.827Z,94.15
2018-01-22T18:35:54.189Z,93.93
2018-01-22T18:38:22.603Z,94.00
2018-01-22T18:40:50.958Z,94.00
2018-01-22T18:43:19.360Z,93.74
2018-01-22T18:45:47.738Z,94.09
2018-01-22T18:48:18.260Z,94.02
2018-01-22T18:50:46.655Z,94.04
2018-01-22T18:53:19.621Z,94.29
2018-01-22T18:55:48.312Z,94.13
2018-01-22T18:58:16.704Z,94.21
2018-01-22T19:00:45.051Z,93.93
2018-01-22T19:03:13.579Z,93.54
2018-01-22T19:05:41.862Z,93.48
2018-01-22T19:08:10.445Z,93.64
2018-01-22T19:10:38.910Z,93.78
2018-01-22T19:13:07.277Z,93.97
2018-01-22T19:15:35.723Z,93.87
2018-01-22T19:18:06.179Z,94.00
2018-01-22T19:20:35.366Z,93.72
2018-01-22T19:23:04.785Z,93.92
2018-01-22T19:25:33.181Z,93.80
2018-01-22T19:28:01.575Z,93.89
2018-01-22T19:30:29.956Z,94.22
2018-01-22T19:32:58.365Z,94.14
2018-01-22T19:35:27.628Z,94.33
2018-01-22T19:37:55.985Z,94.37
2018-01-22T19:40:25.353Z,94.05
2018-01-22T19:42:54.604Z,93.98
2018-01-22T19:45:22.981Z,93.69
2018-01-22T19:47:51.351Z,93.92
2018-01-22T19:50:20.644Z,93.70
2018-01-22T19:52:49.114Z,93.59
2018-01-22T19:55:17.767Z,93.43
2018-01-22T19:57:46.122Z,93.32
2018-01-22T20:00:14.495Z,93.21
2018-01-22T20:02:46.558Z,93.25
2018-01-22T20:05:14.939Z,93.90
2018-01-22T20:07:43.319Z,93.81
2018-01-22T20:10:11.979Z,93.52
2018-01-22T20:12:40.398Z,93.70
2018-01-22T20:15:08.794Z,93.84
2018-01-22T20:17:37.140Z,94.05
2018-01-22T20:20:05.531Z,93.71
2018-01-22T20:22:41.957Z,93.87
2018-01-22T20:25:10.398Z,94.00
2018-01-22T20:27:40.642Z,93.80
2018-01-22T20:30:09.015Z,93.51
2018-01-22T20:32:37.390Z,93.79
2018-01-22T20:35:05.780Z,93.97
2018-01-22T20:37:35.710Z,93.71
2018-01-22T20:40:04.086Z,93.40
2018-01-22T20:42:36.481Z,93.66
2018-01-22T20:45:08.821Z,93.90
2018-01-22T20:47:37.226Z,93.62
2018-01-22T20:50:05.591Z,93.42
2018-01-22T20:52:33.943Z,93.76
2018-01-22T20:55:02.390Z,93.41
2018-01-22T20:57:30.726Z,93.70
2018-01-22T21:00:02.188Z,93.73
2018-01-22T21:02:34.261Z,93.23
2018-01-22T21:05:02.627Z,93.21
2018-01-22T21:07:31.000Z,93.42
2018-01-22T21:09:59.384Z,93.18
2018-01-22T21:12:28.702Z,93.32
2018-01-22T21:14:58.275Z,93.24
2018-01-22T21:17:26.694Z,93.24
2018-01-22T21:19:55.114Z,93.63
2018-01-22T21:22:24.352Z,93.47
2018-01-22T21:24:56.442Z,93.38
2018-01-22T21:27:24.811Z,93.03
2018-01-22T21:29:53.189Z,93.49
2018-01-22T21:32:24.935Z,94.11
2018-01-22T21:34:53.302Z,93.79
2018-01-22T21:37:21.756Z,93.91
2018-01-22T21:39:51.017Z,93.58
2018-01-22T21:42:19.406Z,93.75
2018-01-22T21:44:47.782Z,93.66
2018-01-22T21:47:18.323Z,94.18
2018-01-22T21:49:46.700Z,94.15
2018-01-22T21:52:15.000Z,94.44
2018-01-22T21:54:43.292Z,94.26
2018-01-22T21:57:12.721Z,94.03
2018-01-22T21:59:41.016Z,94.34
2018-01-22T22:02:09.310Z,94.14
2018-01-22T22:04:38.499Z,94.27
2018-01-22T22:07:07.213Z,93.79
2018-01-22T22:09:35.862Z,93.75
2018-01-22T22:12:04.673Z,93.84
2018-01-22T22:14:32.955Z,93.66
2018-01-22T22:17:01.616Z,93.79
2018-01-22T22:19:29.918Z,93.86
2018-01-22T22:21:58.215Z,94.01
2018-01-22T22:24:26.897Z,93.61
2018-01-22T22:26:55.125Z,93.72
2018-01-22T22:29:23.516Z,93.65
2018-01-22T22:31:51.797Z,93.72
2018-01-22T22:34:20.082Z,93.53
2018-01-22T22:36:48.756Z,93.20
2018-01-22T22:39:17.043Z,93.69
2018-01-22T22:41:45.320Z,93.46
2018-01-22T22:44:13.614Z,93.84
2018-01-22T22:46:41.879Z,94.13
2018-01-22T22:49:10.653Z,93.91
2018-01-22T22:51:38.917Z,94.32
2018-01-22T22:54:07.175Z,94.53
2018-01-22T22:56:36.231Z,94.38
2018-01-22T22:59:04.514Z,94.33
2018-01-22T23:01:32.811Z,94.22
2018-01-22T23:04:01.110Z,94.00
2018-01-22T23:06:29.390Z,94.15
2018-01-22T23:08:57.673Z,93.87
2018-01-22T23:11:25.939Z,93.72
2018-01-22T23:13:54.694Z,94.22
2018-01-22T23:16:22.967Z,93.92
2018-01-22T23:18:51.232Z,93.75
2018-01-22T23:21:19.518Z,94.03
2018-01-22T23:23:47.775Z,94.07
2018-01-22T23:26:16.045Z,94.02
2018-01-22T23:28:44.337Z,93.97
2018-01-22T23:31:12.591Z,93.87
2018-01-22T23:33:42.023Z,93.59
2018-01-22T23:36:10.283Z,93.62
2018-01-22T23:38:38.580Z,93.53
2018-01-22T23:41:06.856Z,94.09
2018-01-22T23:43:35.527Z,94.43
2018-01-22T23:46:03.820Z,94.08
2018-01-22T23:48:32.085Z,94.15
2018-01-22T23:51:00.380Z,94.22
2018-01-22T23:53:28.646Z,94.34
2018-01-22T23:55:56.917Z,94.05
2018-01-22T23:58:25.198Z,94.19
